createdAt,value
2022-10-07T00:01:17.917Z,8.70
2022-10-07T00:03:46.254Z,8.60
2022-10-07T00:06:16.720Z,8.50
2022-10-07T00:08:48.131Z,8.40
2022-10-07T00:11:18.589Z,8.50
2022-10-07T00:13:48.638Z,8.50
2022-10-07T00:16:19.259Z,8.50
2022-10-07T00:18:48.360Z,8.40
2022-10-07T00:21:18.452Z,8.50
2022-10-07T00:23:49.027Z,8.30
2022-10-07T00:26:19.871Z,8.50
2022-10-07T00:28:48.874Z,8.30
2022-10-07T00:31:19.719Z,8.40
2022-10-07T00:33:48.379Z,8.30
2022-10-07T00:36:23.834Z,8.10
2022-10-07T00:38:56.371Z,8.00
2022-10-07T00:41:27.259Z,8.10
2022-10-07T00:43:55.834Z,7.90
2022-10-07T00:46:30.785Z,7.90
2022-10-07T00:49:03.102Z,7.70
2022-10-07T00:51:33.489Z,7.80
2022-10-07T00:54:07.893Z,7.70
2022-10-07T00:56:36.472Z,7.20
2022-10-07T00:59:05.526Z,7.30
2022-10-07T01:01:36.329Z,7.30
2022-10-07T01:04:05.280Z,7.50
2022-10-07T01:06:39.314Z,7.50
2022-10-07T01:09:10.446Z,7.10
2022-10-07T01:11:49.285Z,7.10
2022-10-07T01:14:26.356Z,7.10
2022-10-07T01:17:00.369Z,7.00
2022-10-07T01:19:50.969Z,7.00
2022-10-07T01:22:30.449Z,7.00
2022-10-07T01:25:14.690Z,7.10
2022-10-07T01:27:50.367Z,7.10
2022-10-07T01:30:19.860Z,7.00
2022-10-07T01:32:55.103Z,7.10
2022-10-07T01:35:27.279Z,7.10
2022-10-07T01:38:00.306Z,6.80
2022-10-07T01:40:39.004Z,6.70
2022-10-07T01:43:09.166Z,7.00
2022-10-07T01:45:42.035Z,6.70
2022-10-07T01:48:10.418Z,6.70
2022-10-07T01:50:39.821Z,6.80
2022-10-07T01:53:24.173Z,6.60
2022-10-07T01:56:03.963Z,6.50
2022-10-07T01:58:51.631Z,6.40
2022-10-07T02:01:27.731Z,6.60
2022-10-07T02:04:13.325Z,6.60
2022-10-07T02:06:51.280Z,6.70
2022-10-07T02:09:30.584Z,6.40
2022-10-07T02:12:06.639Z,6.10
2022-10-07T02:14:40.120Z,6.30
2022-10-07T02:17:14.246Z,6.30
2022-10-07T02:19:47.641Z,6.10
2022-10-07T02:22:18.644Z,5.90
2022-10-07T02:24:49.357Z,5.80
2022-10-07T02:27:23.009Z,6.00
2022-10-07T02:29:58.192Z,6.00
2022-10-07T02:32:28.819Z,6.00
2022-10-07T02:35:03.576Z,6.00
2022-10-07T02:37:38.383Z,6.10
2022-10-07T02:40:12.110Z,5.90
2022-10-07T02:42:45.955Z,5.90
2022-10-07T02:45:22.234Z,6.10
2022-10-07T02:47:58.644Z,6.20
2022-10-07T02:50:32.200Z,6.00
2022-10-07T02:53:02.691Z,5.80
2022-10-07T02:55:32.530Z,5.90
2022-10-07T02:58:05.483Z,6.00
2022-10-07T03:00:38.808Z,5.80
2022-10-07T03:03:07.356Z,5.80
2022-10-07T03:05:37.039Z,5.80
2022-10-07T03:08:08.401Z,5.70
2022-10-07T03:10:37.291Z,5.80
2022-10-07T03:13:05.940Z,5.70
2022-10-07T03:15:42.166Z,5.80
2022-10-07T03:18:26.367Z,5.60
2022-10-07T03:20:56.291Z,5.80
2022-10-07T03:23:25.504Z,5.80
2022-10-07T03:25:55.296Z,5.80
2022-10-07T03:28:27.900Z,5.50
2022-10-07T03:31:05.941Z,5.70
2022-10-07T03:33:34.974Z,5.70
2022-10-07T03:36:03.689Z,5.70
2022-10-07T03:38:31.897Z,5.70
2022-10-07T03:41:01.964Z,5.80
2022-10-07T03:43:32.591Z,5.90
2022-10-07T03:46:05.173Z,5.90
2022-10-07T03:48:33.744Z,5.60
2022-10-07T03:51:02.309Z,5.60
2022-10-07T03:53:31.208Z,5.50
2022-10-07T03:55:59.811Z,5.60
2022-10-07T03:58:29.275Z,5.60
2022-10-07T04:01:15.126Z,5.70
2022-10-07T04:03:49.518Z,5.50
2022-10-07T04:06:19.251Z,5.70
2022-10-07T04:08:47.903Z,5.70
2022-10-07T04:11:18.441Z,5.70
2022-10-07T04:13:48.149Z,5.70
2022-10-07T04:16:18.176Z,5.60
2022-10-07T04:18:47.972Z,5.60
2022-10-07T04:21:18.221Z,5.40
2022-10-07T04:23:46.962Z,5.50
2022-10-07T04:26:15.859Z,5.40
2022-10-07T04:28:45.129Z,5.30
2022-10-07T04:31:13.503Z,5.30
2022-10-07T04:33:44.511Z,5.30
2022-10-07T04:36:13.742Z,5.40
2022-10-07T04:38:44.293Z,5.40
2022-10-07T04:41:12.826Z,5.30
2022-10-07T04:47:29.454Z,5.30
2022-10-07T04:50:02.019Z,5.30
2022-10-07T04:52:30.518Z,5.20
2022-10-07T04:54:59.133Z,5.30
2022-10-07T04:57:27.663Z,5.40
2022-10-07T04:59:56.454Z,5.30
2022-10-07T05:02:25.297Z,5.40
2022-10-07T05:05:03.939Z,5.50
2022-10-07T05:07:37.326Z,5.30
2022-10-07T05:10:11.822Z,5.30
2022-10-07T05:12:41.220Z,5.30
2022-10-07T05:15:10.292Z,5.20
2022-10-07T05:17:46.517Z,5.20
2022-10-07T05:20:16.500Z,5.20
2022-10-07T05:22:45.870Z,5.10
2022-10-07T05:25:14.103Z,5.10
2022-10-07T05:27:42.883Z,5.20
2022-10-07T05:30:13.016Z,5.30
2022-10-07T05:32:41.358Z,5.50
2022-10-07T05:35:10.486Z,5.90
2022-10-07T05:37:40.134Z,5.90
2022-10-07T05:40:09.757Z,5.70
2022-10-07T05:42:38.058Z,5.50
2022-10-07T05:45:07.182Z,5.60
2022-10-07T05:47:35.597Z,5.60
2022-10-07T05:50:04.198Z,6.00
2022-10-07T05:52:32.709Z,6.60
2022-10-07T05:55:04.911Z,6.60
2022-10-07T05:57:35.231Z,7.10
2022-10-07T06:00:05.941Z,7.20
2022-10-07T06:02:34.395Z,7.30
2022-10-07T06:05:02.952Z,7.20
2022-10-07T06:07:31.309Z,7.00
2022-10-07T06:10:29.813Z,6.80
2022-10-07T06:13:09.854Z,6.40
2022-10-07T06:15:38.290Z,6.50
2022-10-07T06:18:06.925Z,6.40
2022-10-07T06:20:35.432Z,6.20
2022-10-07T06:23:03.678Z,6.20
2022-10-07T06:25:33.344Z,6.10
2022-10-07T06:28:02.081Z,6.20
2022-10-07T06:30:31.214Z,6.10
2022-10-07T06:32:59.845Z,6.50
2022-10-07T06:35:28.444Z,6.80
2022-10-07T06:37:56.811Z,6.80
2022-10-07T06:40:25.029Z,6.70
2022-10-07T06:42:55.170Z,6.60
2022-10-07T06:45:23.584Z,6.60
2022-10-07T06:47:53.669Z,6.60
2022-10-07T06:50:23.902Z,6.60
2022-10-07T06:52:52.533Z,6.70
2022-10-07T06:55:20.849Z,6.80
2022-10-07T06:57:49.125Z,6.90
2022-10-07T07:00:19.467Z,6.90
2022-10-07T07:02:48.160Z,6.90
2022-10-07T07:05:17.353Z,7.00
2022-10-07T07:07:46.037Z,7.20
2022-10-07T07:10:14.964Z,7.30
2022-10-07T07:12:46.813Z,7.40
2022-10-07T07:15:15.418Z,7.40
2022-10-07T07:17:45.476Z,7.80
2022-10-07T07:20:14.603Z,8.20
2022-10-07T07:22:43.495Z,8.80
2022-10-07T07:25:15.219Z,9.30
2022-10-07T07:27:44.135Z,9.70
2022-10-07T07:30:15.559Z,9.80
2022-10-07T07:32:45.821Z,10.00
2022-10-07T07:35:15.002Z,10.20
2022-10-07T07:37:43.956Z,10.20
2022-10-07T07:40:12.616Z,10.30
2022-10-07T07:42:42.662Z,10.40
2022-10-07T07:45:12.758Z,10.50
2022-10-07T07:47:41.476Z,10.70
2022-10-07T07:50:11.441Z,10.70
2022-10-07T07:52:39.968Z,10.80
2022-10-07T07:55:09.530Z,10.90
2022-10-07T07:57:39.472Z,11.00
2022-10-07T08:00:08.920Z,11.10
2022-10-07T08:02:37.350Z,11.30
2022-10-07T08:05:06.102Z,11.50
2022-10-07T08:07:37.112Z,11.60
2022-10-07T08:10:06.537Z,11.70
2022-10-07T08:12:36.675Z,11.70
2022-10-07T08:15:07.737Z,11.90
2022-10-07T08:17:36.407Z,12.10
2022-10-07T08:20:04.840Z,12.20
2022-10-07T08:22:35.886Z,12.30
2022-10-07T08:25:06.305Z,12.30
2022-10-07T08:27:35.007Z,12.40
2022-10-07T08:30:04.069Z,12.50
2022-10-07T08:32:34.315Z,12.60
2022-10-07T08:35:04.830Z,12.50
2022-10-07T08:37:33.201Z,12.60
2022-10-07T08:40:03.215Z,12.60
2022-10-07T08:42:38.203Z,12.80
2022-10-07T08:45:10.472Z,12.80
2022-10-07T08:47:44.255Z,12.90
2022-10-07T08:50:19.872Z,13.00
2022-10-07T08:52:52.622Z,13.00
2022-10-07T08:55:28.081Z,13.10
2022-10-07T08:58:18.602Z,13.00
2022-10-07T09:00:54.054Z,13.10
2022-10-07T09:03:36.867Z,13.10
2022-10-07T09:06:11.264Z,13.20
2022-10-07T09:08:46.681Z,13.30
2022-10-07T09:11:25.504Z,13.50
2022-10-07T09:14:00.957Z,13.50
2022-10-07T09:16:38.303Z,13.20
2022-10-07T09:19:07.672Z,13.50
2022-10-07T09:21:42.305Z,13.50
2022-10-07T09:24:19.300Z,13.60
2022-10-07T09:26:48.090Z,13.70
2022-10-07T09:29:19.875Z,13.60
2022-10-07T09:31:54.549Z,13.80
2022-10-07T09:34:25.972Z,13.80
2022-10-07T09:37:17.133Z,14.00
2022-10-07T09:39:47.520Z,13.90
2022-10-07T09:42:32.162Z,14.00
2022-10-07T09:45:04.904Z,14.00
2022-10-07T09:47:37.806Z,14.30
2022-10-07T09:50:07.382Z,14.40
2022-10-07T09:52:38.067Z,14.40
2022-10-07T09:55:32.308Z,14.40
2022-10-07T09:58:02.036Z,14.50
2022-10-07T10:00:34.920Z,14.70
2022-10-07T10:03:09.023Z,14.90
2022-10-07T10:05:41.608Z,15.00
2022-10-07T10:08:26.658Z,15.00
2022-10-07T10:10:59.082Z,15.10
2022-10-07T10:13:31.126Z,15.20
2022-10-07T10:16:02.024Z,15.40
2022-10-07T10:18:37.470Z,15.40
2022-10-07T10:21:20.957Z,15.50
2022-10-07T10:23:52.519Z,15.40
2022-10-07T10:26:57.714Z,15.40
2022-10-07T10:29:48.534Z,15.80
2022-10-07T10:32:37.550Z,15.90
2022-10-07T10:35:14.346Z,15.90
2022-10-07T10:38:07.844Z,16.10
2022-10-07T10:40:41.501Z,16.40
2022-10-07T10:43:28.026Z,16.30
2022-10-07T10:46:15.926Z,16.50
2022-10-07T10:48:54.069Z,16.30
2022-10-07T10:51:34.839Z,16.50
2022-10-07T10:54:16.027Z,16.80
2022-10-07T10:56:51.729Z,17.00
2022-10-07T10:59:42.257Z,17.20
2022-10-07T11:02:29.441Z,17.50
2022-10-07T11:05:03.115Z,17.70
2022-10-07T11:07:37.864Z,18.10
2022-10-07T11:10:16.942Z,18.30
2022-10-07T11:12:48.519Z,18.30
2022-10-07T11:15:22.724Z,18.40
2022-10-07T11:17:53.908Z,18.50
2022-10-07T11:20:29.433Z,18.50
2022-10-07T11:23:03.714Z,18.00
2022-10-07T11:25:37.843Z,17.90
2022-10-07T11:28:16.007Z,17.90
2022-10-07T11:30:52.661Z,17.70
2022-10-07T11:33:28.847Z,17.70
2022-10-07T11:36:13.275Z,17.50
2022-10-07T11:38:43.943Z,17.80
2022-10-07T11:41:21.505Z,18.10
2022-10-07T11:43:53.284Z,18.00
2022-10-07T11:46:25.784Z,18.50
2022-10-07T11:49:03.506Z,18.80
2022-10-07T11:51:39.428Z,18.80
2022-10-07T11:54:10.617Z,18.50
2022-10-07T11:56:45.740Z,18.30
2022-10-07T11:59:34.491Z,18.40
2022-10-07T12:02:05.222Z,18.60
2022-10-07T12:04:39.008Z,18.90
2022-10-07T12:07:37.827Z,18.90
2022-10-07T12:10:28.971Z,19.10
2022-10-07T12:13:03.416Z,18.80
2022-10-07T12:15:35.562Z,18.70
2022-10-07T12:18:39.329Z,18.40
2022-10-07T12:21:09.405Z,18.20
2022-10-07T12:23:43.967Z,17.90
2022-10-07T12:26:49.046Z,18.10
2022-10-07T12:29:32.076Z,18.20
2022-10-07T12:32:00.813Z,18.30
2022-10-07T12:34:41.249Z,18.60
2022-10-07T12:37:37.686Z,18.40
2022-10-07T12:40:16.697Z,18.40
2022-10-07T12:42:52.250Z,18.50
2022-10-07T12:45:23.407Z,18.90
2022-10-07T12:47:56.329Z,18.90
2022-10-07T12:50:26.637Z,18.70
2022-10-07T12:52:58.843Z,18.50
2022-10-07T12:55:33.368Z,18.50
2022-10-07T12:58:19.165Z,18.70
2022-10-07T13:01:01.978Z,19.30
2022-10-07T13:04:08.997Z,19.30
2022-10-07T13:07:17.001Z,19.10
2022-10-07T13:10:16.500Z,18.90
2022-10-07T13:12:51.926Z,18.90
2022-10-07T13:15:30.447Z,18.70
2022-10-07T13:18:09.862Z,18.40
2022-10-07T13:20:54.778Z,18.50
2022-10-07T13:23:27.037Z,18.80
2022-10-07T13:25:58.696Z,19.10
2022-10-07T13:28:34.747Z,19.10
2022-10-07T13:31:18.239Z,19.80
2022-10-07T13:33:46.795Z,19.70
2022-10-07T13:36:19.067Z,20.00
2022-10-07T13:38:49.150Z,19.90
2022-10-07T13:41:26.163Z,20.20
2022-10-07T13:44:00.611Z,20.30
2022-10-07T13:46:31.880Z,20.60
2022-10-07T13:49:01.286Z,21.20
2022-10-07T13:51:35.841Z,21.20
2022-10-07T13:54:06.737Z,20.80
2022-10-07T13:56:39.568Z,20.10
2022-10-07T13:59:15.992Z,19.30
2022-10-07T14:01:45.030Z,18.90
2022-10-07T14:04:20.943Z,18.50
2022-10-07T14:06:56.197Z,18.00
2022-10-07T14:09:35.185Z,17.70
2022-10-07T14:12:06.391Z,17.70
2022-10-07T14:14:39.456Z,17.30
2022-10-07T14:17:20.033Z,17.50
2022-10-07T14:19:53.748Z,17.60
2022-10-07T14:22:29.130Z,17.40
2022-10-07T14:25:01.623Z,17.50
2022-10-07T14:27:53.807Z,17.60
2022-10-07T14:30:56.530Z,17.60
2022-10-07T14:34:03.460Z,17.60
2022-10-07T14:36:31.956Z,17.60
2022-10-07T14:39:04.078Z,17.60
2022-10-07T14:41:33.621Z,17.70
2022-10-07T14:44:04.295Z,17.60
2022-10-07T14:46:34.631Z,17.50
2022-10-07T14:49:02.930Z,17.40
2022-10-07T14:51:31.251Z,17.20
2022-10-07T14:54:06.615Z,17.20
2022-10-07T14:56:38.185Z,17.10
2022-10-07T14:59:10.816Z,17.00
2022-10-07T15:01:40.566Z,17.00
2022-10-07T15:04:11.310Z,17.00
2022-10-07T15:06:39.583Z,17.10
2022-10-07T15:09:07.908Z,17.00
2022-10-07T15:11:43.287Z,17.00
2022-10-07T15:14:15.070Z,16.70
2022-10-07T15:16:44.870Z,16.60
2022-10-07T15:19:15.766Z,16.50
2022-10-07T15:21:44.479Z,16.50
2022-10-07T15:24:13.498Z,16.60
2022-10-07T15:26:42.051Z,16.50
2022-10-07T15:29:11.600Z,16.60
2022-10-07T15:31:39.944Z,16.40
2022-10-07T15:34:09.932Z,16.20
2022-10-07T15:36:38.374Z,16.10
2022-10-07T15:39:06.664Z,16.10
2022-10-07T15:41:37.004Z,15.90
2022-10-07T15:44:07.220Z,15.80
2022-10-07T15:46:37.154Z,15.80
2022-10-07T15:49:08.815Z,15.60
2022-10-07T15:51:39.160Z,15.60
2022-10-07T15:54:12.443Z,15.50
2022-10-07T15:56:41.558Z,15.50
2022-10-07T15:59:10.317Z,15.50
2022-10-07T16:01:38.651Z,15.40
2022-10-07T16:04:12.934Z,15.40
2022-10-07T16:06:49.607Z,15.30
2022-10-07T16:09:19.404Z,15.20
2022-10-07T16:11:48.190Z,15.20
2022-10-07T16:14:17.471Z,15.10
2022-10-07T16:16:46.275Z,15.00
2022-10-07T16:19:15.043Z,15.00
2022-10-07T16:21:44.737Z,14.90
2022-10-07T16:24:15.852Z,14.90
2022-10-07T16:26:44.912Z,14.90
2022-10-07T16:29:34.247Z,14.80
2022-10-07T16:32:02.951Z,14.80
2022-10-07T16:34:31.396Z,14.60
2022-10-07T16:37:01.127Z,14.60
2022-10-07T16:39:29.723Z,14.60
2022-10-07T16:41:59.925Z,14.40
2022-10-07T16:44:29.648Z,14.40
2022-10-07T16:46:59.097Z,14.40
2022-10-07T16:49:30.224Z,14.40
2022-10-07T16:52:00.316Z,14.30
2022-10-07T16:54:30.368Z,14.30
2022-10-07T16:56:59.936Z,14.30
2022-10-07T16:59:31.958Z,14.30
2022-10-07T17:02:03.190Z,14.20
2022-10-07T17:04:33.566Z,14.20
2022-10-07T17:07:03.671Z,14.20
2022-10-07T17:09:32.023Z,14.20
2022-10-07T17:12:00.306Z,14.20
2022-10-07T17:14:31.613Z,14.10
2022-10-07T17:17:00.801Z,14.00
2022-10-07T17:19:29.824Z,14.00
2022-10-07T17:21:59.674Z,14.00
2022-10-07T17:24:30.003Z,14.00
2022-10-07T17:26:58.313Z,14.00
2022-10-07T17:29:27.045Z,13.90
2022-10-07T17:31:56.494Z,13.90
2022-10-07T17:34:24.935Z,13.80
2022-10-07T17:36:54.222Z,13.80
2022-10-07T17:39:23.278Z,13.80
2022-10-07T17:41:53.657Z,13.80
2022-10-07T17:44:23.226Z,13.90
2022-10-07T17:46:51.705Z,13.80
2022-10-07T17:49:24.019Z,13.80
2022-10-07T17:51:55.259Z,13.80
2022-10-07T17:54:24.450Z,13.80
2022-10-07T17:56:55.447Z,13.70
2022-10-07T17:59:23.943Z,13.70
2022-10-07T18:01:52.280Z,13.70
2022-10-07T18:04:24.729Z,13.80
2022-10-07T18:06:53.434Z,13.70
2022-10-07T18:09:24.153Z,13.70
2022-10-07T18:12:09.940Z,13.70
2022-10-07T18:14:57.193Z,13.70
2022-10-07T18:17:25.572Z,13.70
2022-10-07T18:19:53.831Z,13.60
2022-10-07T18:22:22.636Z,13.60
2022-10-07T18:24:52.191Z,13.50
2022-10-07T18:27:26.938Z,13.40
2022-10-07T18:29:56.847Z,13.40
2022-10-07T18:32:25.569Z,13.20
2022-10-07T18:34:53.787Z,13.30
2022-10-07T18:37:23.588Z,13.30
2022-10-07T18:39:52.519Z,13.30
2022-10-07T18:42:23.265Z,13.20
2022-10-07T18:44:52.389Z,13.20
2022-10-07T18:47:22.369Z,13.20
2022-10-07T18:49:51.779Z,13.20
2022-10-07T18:52:21.799Z,13.20
2022-10-07T18:54:50.040Z,13.10
2022-10-07T18:57:19.689Z,13.20
2022-10-07T18:59:49.793Z,13.10
2022-10-07T19:02:18.160Z,13.10
2022-10-07T19:04:48.158Z,13.00
2022-10-07T19:07:16.416Z,12.90
2022-10-07T19:09:44.822Z,12.90
2022-10-07T19:12:28.850Z,12.90
2022-10-07T19:14:57.074Z,13.00
2022-10-07T19:17:25.495Z,12.90
2022-10-07T19:20:00.822Z,12.60
2022-10-07T19:22:29.445Z,12.70
2022-10-07T19:25:15.118Z,12.70
2022-10-07T19:27:43.844Z,12.70
2022-10-07T19:30:12.999Z,12.50
2022-10-07T19:32:41.318Z,12.40
2022-10-07T19:35:11.608Z,12.40
2022-10-07T19:37:39.924Z,12.40
2022-10-07T19:40:10.257Z,12.40
2022-10-07T19:42:38.968Z,12.30
2022-10-07T19:45:09.290Z,12.40
2022-10-07T19:47:45.947Z,12.20
2022-10-07T19:50:15.826Z,12.20
2022-10-07T19:52:44.187Z,12.30
2022-10-07T19:55:12.479Z,12.20
2022-10-07T19:57:43.248Z,12.30
2022-10-07T20:00:12.929Z,12.20
2022-10-07T20:02:41.596Z,12.20
2022-10-07T20:05:12.354Z,12.20
2022-10-07T20:07:42.112Z,12.30
2022-10-07T20:10:10.691Z,12.20
2022-10-07T20:12:40.505Z,12.20
2022-10-07T20:15:10.206Z,12.20
2022-10-07T20:17:39.513Z,12.20
2022-10-07T20:20:08.784Z,12.10
2022-10-07T20:22:37.614Z,12.20
2022-10-07T20:25:11.094Z,12.20
2022-10-07T20:27:39.866Z,12.30
2022-10-07T20:30:17.536Z,12.20
2022-10-07T20:32:46.481Z,12.20
2022-10-07T20:35:17.188Z,12.20
2022-10-07T20:37:45.592Z,12.30
2022-10-07T20:40:32.460Z,12.30
2022-10-07T20:43:01.120Z,12.20
2022-10-07T20:45:29.608Z,12.20
2022-10-07T20:47:59.625Z,12.30
2022-10-07T20:50:28.261Z,12.30
2022-10-07T20:52:56.763Z,12.30
2022-10-07T20:55:31.918Z,12.30
2022-10-07T20:58:02.451Z,12.30
2022-10-07T21:00:35.694Z,12.30
2022-10-07T21:03:07.692Z,12.30
2022-10-07T21:05:39.388Z,12.30
2022-10-07T21:08:08.068Z,12.30
2022-10-07T21:10:45.486Z,12.30
2022-10-07T21:13:15.676Z,12.30
2022-10-07T21:15:44.444Z,12.30
2022-10-07T21:18:14.761Z,12.30
2022-10-07T21:20:56.269Z,12.20
2022-10-07T21:23:29.470Z,12.30
2022-10-07T21:26:02.507Z,12.10
2022-10-07T21:28:33.965Z,12.10
2022-10-07T21:31:02.930Z,12.20
2022-10-07T21:33:32.747Z,12.20
2022-10-07T21:36:01.742Z,12.20
2022-10-07T21:38:30.092Z,12.10
2022-10-07T21:41:00.683Z,12.10
2022-10-07T21:43:31.254Z,12.20
2022-10-07T21:46:00.444Z,12.10
2022-10-07T21:48:30.232Z,12.10
2022-10-07T21:51:01.902Z,12.20
2022-10-07T21:53:33.691Z,12.10
2022-10-07T21:56:04.245Z,12.10
2022-10-07T21:58:35.862Z,12.00
2022-10-07T22:01:04.821Z,12.10
2022-10-07T22:03:33.385Z,12.10
2022-10-07T22:06:06.084Z,12.00
2022-10-07T22:08:36.768Z,12.00
2022-10-07T22:11:06.386Z,11.90
2022-10-07T22:13:38.771Z,11.80
2022-10-07T22:16:08.802Z,11.70
2022-10-07T22:18:38.508Z,11.70
2022-10-07T22:21:12.850Z,11.60
2022-10-07T22:23:41.691Z,11.60
2022-10-07T22:26:12.590Z,11.60
2022-10-07T22:28:42.535Z,11.50
2022-10-07T22:31:13.222Z,11.40
2022-10-07T22:33:42.333Z,11.40
2022-10-07T22:36:12.343Z,11.40
2022-10-07T22:38:41.984Z,11.50
2022-10-07T22:41:12.015Z,11.50
2022-10-07T22:43:44.238Z,11.60
2022-10-07T22:46:15.965Z,11.60
2022-10-07T22:48:48.603Z,11.60
2022-10-07T22:51:18.416Z,11.60
2022-10-07T22:53:54.950Z,11.60
2022-10-07T22:56:24.995Z,11.60
2022-10-07T22:58:59.692Z,11.50
2022-10-07T23:01:29.704Z,11.50
2022-10-07T23:03:58.912Z,11.50
2022-10-07T23:06:27.825Z,11.50
2022-10-07T23:08:56.981Z,11.50
2022-10-07T23:11:27.093Z,11.60
2022-10-07T23:13:56.938Z,11.50
2022-10-07T23:16:28.303Z,11.40
2022-10-07T23:18:57.212Z,11.40
2022-10-07T23:21:26.870Z,11.50
2022-10-07T23:24:06.074Z,11.40
2022-10-07T23:26:36.507Z,11.30
2022-10-07T23:29:10.574Z,11.20
2022-10-07T23:31:42.154Z,11.30
2022-10-07T23:34:16.382Z,11.20
2022-10-07T23:36:47.494Z,11.20
2022-10-07T23:39:19.872Z,11.20
2022-10-07T23:41:53.549Z,11.10
2022-10-07T23:44:24.158Z,10.90
2022-10-07T23:46:56.053Z,10.90
2022-10-07T23:49:27.588Z,10.90
2022-10-07T23:51:56.776Z,10.90
2022-10-07T23:54:25.149Z,11.00
2022-10-07T23:56:54.272Z,11.10
2022-10-07T23:59:26.111Z,11.10
